Time;durP1;ratioP1;P1;durP2;ratioP2;P2;SDS_P1;SDS_P2;PMS_P1;PMS_P2;Temp;Humidity;BMP_temperature;BMP_pressure;BME280_temperature;BME280_humidity;BME280_pressure;Samples;Min_cycle;Max_cycle;Signal;HPM_P1;HPM_P2
2023/09/20 00:00:57;;;;;;;12.07;8.00;;;;;;;19.35;100.00;105735.19;5072035;28;20043;-73
2023/09/20 00:03:25;;;;;;;13.70;7.88;;;;;;;20.08;100.00;104303.16;5071316;28;20487;-72
2023/09/20 00:05:51;;;;;;;8.80;7.90;;;;;;;20.06;100.00;104350.53;5071823;28;20052;-70
2023/09/20 00:08:17;;;;;;;10.80;8.23;;;;;;;19.63;100.00;104319.38;5071701;28;20109;-72
2023/09/20 00:10:45;;;;;;;9.80;8.55;;;;;;;19.80;100.00;104378.88;5070102;28;20115;-72
2023/09/20 00:13:12;;;;;;;10.60;8.75;;;;;;;19.75;100.00;104442.56;5071676;28;20399;-73
2023/09/20 00:15:40;;;;;;;11.40;8.43;;;;;;;20.09;100.00;104546.97;5071927;28;20066;-73
2023/09/20 00:18:07;;;;;;;11.80;8.40;;;;;;;19.76;100.00;104516.63;5071932;28;20024;-73
2023/09/20 00:20:33;;;;;;;11.63;8.00;;;;;;;19.89;100.00;104513.25;5071560;28;20478;-74
2023/09/20 00:23:00;;;;;;;9.23;7.55;;;;;;;19.79;100.00;104440.00;5071799;28;20056;-73
2023/09/20 00:25:27;;;;;;;13.80;8.25;;;;;;;19.71;100.00;104456.31;5071545;28;20490;-73
2023/09/20 00:27:52;;;;;;;10.18;7.82;;;;;;;19.57;100.00;104385.66;5071672;28;20021;-69
2023/09/20 00:30:19;;;;;;;15.52;9.00;;;;;;;19.27;100.00;104315.72;5071851;28;20027;-73
2023/09/20 00:32:45;;;;;;;11.95;8.77;;;;;;;19.34;100.00;104294.25;5071708;28;20064;-73
2023/09/20 00:35:12;;;;;;;10.77;8.23;;;;;;;19.69;100.00;104298.72;5071377;28;20463;-74
2023/09/20 00:37:39;;;;;;;10.00;8.40;;;;;;;19.55;100.00;104273.72;5071713;28;20371;-72
2023/09/20 00:40:07;;;;;;;10.57;8.30;;;;;;;19.75;100.00;104228.13;5071182;28;20040;-72
2023/09/20 00:42:32;;;;;;;8.95;7.80;;;;;;;19.31;100.00;104172.91;5087183;28;20123;-73
2023/09/20 00:45:01;;;;;;;10.23;8.25;;;;;;;19.41;100.00;104172.09;5071032;28;20123;-73
2023/09/20 00:47:27;;;;;;;10.25;8.25;;;;;;;19.52;100.00;104173.84;5069812;28;20032;-72
2023/09/20 00:49:52;;;;;;;10.77;8.05;;;;;;;19.40;100.00;104113.56;5086879;28;20025;-73
2023/09/20 00:52:18;;;;;;;10.77;8.68;;;;;;;19.37;100.00;104026.63;5070888;28;20036;-72
2023/09/20 00:54:43;;;;;;;9.63;8.35;;;;;;;19.04;100.00;103823.59;5071186;28;20033;-72
2023/09/20 00:57:09;;;;;;;10.55;9.10;;;;;;;19.35;100.00;103770.22;5086061;28;20119;-73
2023/09/20 00:59:35;;;;;;;10.75;9.20;;;;;;;19.29;100.00;103410.59;5071225;28;20062;-72
2023/09/20 01:02:02;;;;;;;12.30;9.15;;;;;;;18.96;100.00;103254.38;5071115;28;20032;-72
2023/09/20 01:04:28;;;;;;;13.63;9.07;;;;;;;18.98;100.00;103248.34;5069603;28;20498;-71
2023/09/20 01:06:54;;;;;;;13.52;10.27;;;;;;;18.84;100.00;103216.69;5070422;28;20045;-71
2023/09/20 01:09:22;;;;;;;12.15;10.40;;;;;;;19.23;100.00;103183.56;5070785;28;20121;-71
2023/09/20 01:11:48;;;;;;;15.35;10.77;;;;;;;19.14;100.00;103200.00;5070991;28;20028;-72
2023/09/20 01:14:14;;;;;;;12.95;11.10;;;;;;;18.81;100.00;103121.31;5070885;28;20036;-72
2023/09/20 01:16:39;;;;;;;12.18;11.02;;;;;;;19.04;100.00;103118.44;5070770;28;20036;-72
2023/09/20 01:19:06;;;;;;;16.38;11.15;;;;;;;19.00;100.00;103067.75;5071059;28;20043;-72
2023/09/20 01:21:39;;;;;;;13.52;11.68;;;;;;;18.90;100.00;103059.28;5069342;28;20115;-72
2023/09/20 01:24:05;;;;;;;14.25;10.88;;;;;;;18.51;100.00;102964.41;5070237;28;20044;-72
2023/09/20 01:26:32;;;;;;;14.25;10.85;;;;;;;18.02;100.00;102884.28;5086378;28;20027;-72
2023/09/20 01:28:58;;;;;;;12.95;10.38;;;;;;;18.85;100.00;102954.50;5070724;28;20121;-71
2023/09/20 01:31:23;;;;;;;12.63;10.55;;;;;;;18.20;100.00;102883.22;5070499;28;20549;-71
2023/09/20 01:33:49;;;;;;;14.65;10.98;;;;;;;18.43;100.00;102873.47;5070536;28;20031;-72
2023/09/20 01:36:15;;;;;;;11.68;10.50;;;;;;;18.19;100.00;102768.16;5070433;28;20032;-72
2023/09/20 01:38:42;;;;;;;16.27;10.52;;;;;;;18.09;100.00;102718.50;5069348;28;20028;-73
2023/09/20 01:41:07;;;;;;;12.35;11.05;;;;;;;18.46;100.00;102716.22;5070438;28;20036;-71
2023/09/20 01:43:33;;;;;;;12.85;11.20;;;;;;;18.38;100.00;102707.72;5070752;28;20033;-72
2023/09/20 01:45:59;;;;;;;15.32;11.32;;;;;;;18.31;100.00;102639.16;5069214;28;20035;-71
2023/09/20 01:48:24;;;;;;;12.55;11.18;;;;;;;18.02;100.00;102449.13;5070386;28;20028;-72
2023/09/20 01:50:50;;;;;;;11.68;10.48;;;;;;;18.50;100.00;102375.16;5069880;28;20414;-72
2023/09/20 01:53:15;;;;;;;11.95;10.75;;;;;;;18.71;100.00;102239.78;5070770;28;20070;-73
2023/09/20 01:55:42;;;;;;;11.65;10.45;;;;;;;18.63;100.00;102111.13;5068763;28;20089;-71
2023/09/20 01:58:07;;;;;;;12.77;10.90;;;;;;;18.54;100.00;101989.44;5070740;28;20027;-72
2023/09/20 02:00:39;;;;;;;13.48;10.88;;;;;;;18.64;100.00;101986.53;5070348;28;20024;-72
2023/09/20 02:03:08;;;;;;;14.55;12.00;;;;;;;18.02;100.00;101900.72;5070681;28;20032;-72
2023/09/20 02:05:36;;;;;;;13.35;11.10;;;;;;;17.99;100.00;101893.06;5070337;28;20035;-72
2023/09/20 02:08:02;;;;;;;11.43;10.00;;;;;;;18.51;100.00;101915.63;5070561;28;20028;-72
2023/09/20 02:10:28;;;;;;;11.90;9.60;;;;;;;18.19;100.00;101846.16;5070614;28;20035;-73
2023/09/20 02:12:55;;;;;;;10.75;9.65;;;;;;;18.54;100.00;101906.97;5070756;28;20418;-72
2023/09/20 02:15:23;;;;;;;12.02;10.80;;;;;;;18.44;100.00;101915.88;5070149;28;20040;-71
2023/09/20 02:17:50;;;;;;;14.98;10.35;;;;;;;18.45;100.00;101889.19;5070286;28;20036;-72
2023/09/20 02:20:23;;;;;;;11.38;10.18;;;;;;;18.20;100.00;101863.31;5073978;28;20031;-72
2023/09/20 02:22:50;;;;;;;17.00;11.00;;;;;;;18.06;100.00;101897.16;5072443;28;20044;-71
2023/09/20 02:25:20;;;;;;;11.27;10.07;;;;;;;18.18;100.00;101895.97;5073814;28;20025;-72
2023/09/20 02:27:50;;;;;;;12.65;10.73;;;;;;;18.09;100.00;101911.66;5072439;28;20032;-73
2023/09/20 02:30:19;;;;;;;11.60;10.18;;;;;;;17.98;100.00;101842.47;5074235;28;20054;-71
2023/09/20 02:32:46;;;;;;;12.15;9.93;;;;;;;18.33;100.00;101851.75;5072473;28;20032;-72
2023/09/20 02:35:12;;;;;;;12.63;11.05;;;;;;;18.35;100.00;101903.22;5072057;28;20036;-71
2023/09/20 02:37:40;;;;;;;13.65;10.88;;;;;;;18.15;100.00;101878.03;5062710;28;20025;-71
2023/09/20 02:40:17;;;;;;;13.90;10.73;;;;;;;17.98;100.00;101839.91;5051934;28;20029;-71
2023/09/20 02:43:13;;;;;;;14.75;11.00;;;;;;;18.37;100.00;101788.94;5052094;28;20408;-71
2023/09/20 02:45:45;;;;;;;15.80;11.80;;;;;;;18.47;100.00;101620.34;5048638;28;20045;-72
2023/09/20 02:48:10;;;;;;;11.70;10.50;;;;;;;18.03;100.00;101493.09;5053319;28;20076;-71
2023/09/20 02:50:36;;;;;;;13.20;10.85;;;;;;;18.05;100.00;101424.38;5051514;28;20123;-71
2023/09/20 02:53:03;;;;;;;13.43;10.60;;;;;;;18.43;100.00;101415.28;5052888;28;20107;-70
2023/09/20 02:55:31;;;;;;;13.20;11.15;;;;;;;18.25;100.00;101374.72;5051607;28;20025;-71
2023/09/20 02:57:56;;;;;;;12.93;10.20;;;;;;;18.12;100.00;101376.91;5053270;28;20028;-72
2023/09/20 03:00:27;;;;;;;14.30;10.90;;;;;;;17.71;100.00;101250.63;5052957;28;20029;-72
2023/09/20 03:02:55;;;;;;;12.32;10.20;;;;;;;18.14;100.00;101320.22;5053125;28;20029;-72
2023/09/20 03:05:26;;;;;;;10.50;9.43;;;;;;;18.22;100.00;101269.28;5052926;28;20475;-72
2023/09/20 03:07:55;;;;;;;12.43;9.33;;;;;;;18.05;100.00;101253.63;5052626;28;20498;-71
2023/09/20 03:10:22;;;;;;;10.38;9.25;;;;;;;18.46;100.00;101272.66;5059301;28;20036;-73
2023/09/20 03:12:53;;;;;;;11.10;9.52;;;;;;;18.79;100.00;101292.78;5071956;28;20115;-76
2023/09/20 03:15:23;;;;;;;14.98;9.82;;;;;;;18.48;100.00;101240.78;5070631;28;20028;-72
2023/09/20 03:17:54;;;;;;;13.18;10.20;;;;;;;18.06;100.00;101198.69;5073128;28;20024;-73
2023/09/20 03:20:23;;;;;;;13.63;9.88;;;;;;;18.52;100.00;101277.56;5057613;28;20032;-72
2023/09/20 03:22:51;;;;;;;13.70;9.98;;;;;;;18.52;100.00;101250.06;5053031;28;20136;-74
2023/09/20 03:25:19;;;;;;;15.27;10.10;;;;;;;18.13;100.00;101231.00;5052789;28;20388;-74
2023/09/20 03:27:45;;;;;;;11.18;9.43;;;;;;;18.65;100.00;101250.41;5052980;28;20032;-76
2023/09/20 03:30:13;;;;;;;13.18;9.90;;;;;;;18.83;100.00;101307.22;5051700;28;20033;-69
2023/09/20 03:32:40;;;;;;;14.48;9.70;;;;;;;18.43;100.00;101299.38;5070843;28;20037;-76
2023/09/20 03:35:06;;;;;;;12.48;9.82;;;;;;;18.57;100.00;101280.78;5071395;28;20024;-71
2023/09/20 03:37:33;;;;;;;11.23;9.35;;;;;;;18.83;100.00;101309.78;5070982;28;20528;-74
2023/09/20 03:39:59;;;;;;;14.77;9.75;;;;;;;18.47;100.00;101308.66;5071173;28;20497;-72
2023/09/20 03:42:24;;;;;;;15.63;10.10;;;;;;;18.51;100.00;101306.78;5072159;28;20032;-75
2023/09/20 03:44:50;;;;;;;11.82;9.80;;;;;;;18.35;100.00;101274.78;5071901;28;20028;-73
2023/09/20 03:47:16;;;;;;;15.80;10.55;;;;;;;18.58;100.00;101306.50;5072270;28;20036;-76
2023/09/20 03:49:42;;;;;;;14.57;10.20;;;;;;;18.36;100.00;101261.84;5071950;28;20032;-75
2023/09/20 03:52:08;;;;;;;13.70;10.65;;;;;;;18.58;100.00;101314.22;5071464;28;20033;-73
2023/09/20 03:54:33;;;;;;;14.35;9.75;;;;;;;18.56;100.00;101259.34;5071642;28;20040;-75
2023/09/20 03:56:59;;;;;;;19.52;10.73;;;;;;;18.34;100.00;101306.59;5070918;28;20052;-77
2023/09/20 03:59:26;;;;;;;14.90;9.35;;;;;;;18.59;100.00;101315.91;5072736;28;20043;-76
2023/09/20 04:01:52;;;;;;;12.90;10.15;;;;;;;18.28;100.00;101268.19;5071150;28;20103;-76
2023/09/20 04:04:18;;;;;;;14.18;10.05;;;;;;;18.17;100.00;101260.88;5071189;28;20028;-74
2023/09/20 04:06:47;;;;;;;12.48;9.85;;;;;;;17.94;100.00;101264.34;5067251;28;20028;-77
2023/09/20 04:09:12;;;;;;;15.63;10.18;;;;;;;18.34;100.00;101297.13;5052295;28;20029;-76
2023/09/20 04:11:39;;;;;;;15.25;11.27;;;;;;;18.40;100.00;101304.59;5060192;28;20040;-74
2023/09/20 04:14:08;;;;;;;19.95;14.18;;;;;;;18.47;100.00;101297.50;5070785;28;20029;-74
2023/09/20 04:16:39;;;;;;;17.48;13.55;;;;;;;18.26;100.00;101294.03;5071070;28;20418;-75
2023/09/20 04:19:06;;;;;;;24.50;14.32;;;;;;;18.01;100.00;101239.19;5073007;28;20474;-76
2023/09/20 04:21:31;;;;;;;11.68;10.07;;;;;;;17.74;100.00;101289.13;5072707;28;20029;-76
2023/09/20 04:23:59;;;;;;;11.93;8.60;;;;;;;17.96;100.00;101298.59;5072470;28;20193;-76
2023/09/20 04:26:24;;;;;;;12.52;8.52;;;;;;;17.79;100.00;101269.19;5072192;28;20028;-77
2023/09/20 04:28:49;;;;;;;10.85;8.60;;;;;;;17.51;100.00;101209.41;5070793;28;20452;-81
2023/09/20 04:31:15;;;;;;;14.52;9.20;;;;;;;17.95;100.00;101296.03;5083877;28;20041;-79
2023/09/20 04:33:40;;;;;;;10.70;9.38;;;;;;;18.20;100.00;101263.34;5071076;28;20043;-73
2023/09/20 04:36:06;;;;;;;13.50;8.27;;;;;;;19.04;100.00;101326.94;5071086;28;20033;-72
2023/09/20 04:38:32;;;;;;;11.93;8.85;;;;;;;17.90;100.00;101272.22;5071159;28;20486;-74
2023/09/20 04:40:59;;;;;;;12.35;9.07;;;;;;;18.61;100.00;101339.88;5071687;28;20040;-76
2023/09/20 04:43:25;;;;;;;11.50;9.02;;;;;;;19.28;100.00;101373.25;5071830;28;20109;-76
2023/09/20 04:45:51;;;;;;;16.38;11.88;;;;;;;18.17;100.00;101356.13;5071056;28;20051;-75
2023/09/20 04:48:17;;;;;;;14.57;10.73;;;;;;;17.95;100.00;101311.50;5069142;28;20417;-75
2023/09/20 04:50:42;;;;;;;15.27;10.10;;;;;;;17.84;100.00;101304.19;5068659;28;20028;-73
2023/09/20 04:53:07;;;;;;;10.73;9.25;;;;;;;18.20;100.00;101356.03;5070715;28;20411;-74
2023/09/20 04:55:34;;;;;;;12.10;9.65;;;;;;;18.22;100.00;101366.28;5086300;28;20032;-74
2023/09/20 04:58:02;;;;;;;13.77;9.38;;;;;;;18.26;100.00;101355.81;5071098;28;20068;-74
2023/09/20 05:00:33;;;;;;;14.57;9.98;;;;;;;18.29;100.00;101344.53;5070237;28;20416;-73
2023/09/20 05:03:02;;;;;;;12.27;10.48;;;;;;;18.49;100.00;101376.41;5070489;28;20071;-76
2023/09/20 05:05:27;;;;;;;13.35;10.52;;;;;;;18.51;100.00;101382.34;5070490;28;20112;-74
2023/09/20 05:07:53;;;;;;;18.73;13.48;;;;;;;18.50;100.00;101380.66;5069180;28;20123;-74
2023/09/20 05:10:19;;;;;;;24.65;14.70;;;;;;;18.10;100.00;101332.34;5070633;28;20058;-76
2023/09/20 05:12:44;;;;;;;19.70;13.40;;;;;;;18.31;100.00;101329.88;5070861;28;20039;-75
2023/09/20 05:15:13;;;;;;;21.80;13.60;;;;;;;18.36;100.00;101331.38;5071327;28;20119;-76
2023/09/20 05:17:43;;;;;;;17.05;12.98;;;;;;;19.01;100.00;101406.16;5070221;28;20024;-75
2023/09/20 05:20:15;;;;;;;19.95;13.80;;;;;;;19.24;100.00;101415.53;5069926;28;20029;-76
2023/09/20 05:22:40;;;;;;;;;;;;;;;19.42;100.00;101461.25;5071752;28;20055;-74
2023/09/20 05:25:07;;;;;;;25.90;14.15;;;;;;;19.31;100.00;101424.72;5070880;28;19912;-74
2023/09/20 05:27:33;;;;;;;14.07;11.20;;;;;;;19.78;100.00;101495.88;5069265;28;20490;-76
2023/09/20 05:29:59;;;;;;;17.05;10.82;;;;;;;20.35;100.00;101665.72;5071167;28;20094;-75
2023/09/20 05:32:24;;;;;;;20.67;11.57;;;;;;;20.34;100.00;101894.84;5070907;28;20414;-75
2023/09/20 05:34:50;;;;;;;16.10;10.43;;;;;;;20.43;100.00;102207.25;5070528;28;20047;-74
2023/09/20 05:37:16;;;;;;;16.67;10.40;;;;;;;20.66;100.00;102798.63;5069375;28;20035;-73
2023/09/20 05:39:43;;;;;;;15.93;10.40;;;;;;;20.83;100.00;103272.50;5070696;28;20060;-73
2023/09/20 05:42:09;;;;;;;18.15;12.43;;;;;;;20.94;100.00;103482.75;5086115;28;20074;-73
2023/09/20 05:44:36;;;;;;;17.13;12.07;;;;;;;20.79;100.00;103702.06;5069811;28;20414;-74
2023/09/20 05:47:03;;;;;;;13.00;9.38;;;;;;;20.82;100.00;103839.16;5070777;28;20100;-74
2023/09/20 05:49:29;;;;;;;12.40;9.15;;;;;;;20.74;100.00;103978.91;5070402;28;20020;-74
2023/09/20 05:51:56;;;;;;;19.02;9.90;;;;;;;21.44;100.00;104280.66;5070824;28;20127;-74
2023/09/20 05:54:22;;;;;;;31.90;12.65;;;;;;;20.80;100.00;104254.94;5073534;28;20033;-74
2023/09/20 05:56:48;;;;;;;26.45;12.88;;;;;;;21.19;100.00;104338.59;5074720;28;20462;-75
2023/09/20 05:59:14;;;;;;;20.77;11.75;;;;;;;21.79;100.00;104492.19;5074847;28;20039;-74
2023/09/20 06:01:40;;;;;;;24.17;11.65;;;;;;;22.25;100.00;105562.69;5075193;28;20027;-73
2023/09/20 06:04:09;;;;;;;26.95;11.82;;;;;;;22.27;100.00;105506.47;5074324;28;20029;-74
2023/09/20 06:06:40;;;;;;;30.83;13.20;;;;;;;22.43;100.00;105485.06;5074332;28;20020;-74
2023/09/20 06:09:05;;;;;;;29.10;14.97;;;;;;;22.20;100.00;105207.19;5074340;28;20042;-74
2023/09/20 06:11:31;;;;;;;25.33;12.43;;;;;;;22.51;100.00;105054.25;5073687;28;20040;-75
2023/09/20 06:13:57;;;;;;;18.25;9.90;;;;;;;22.15;100.00;104896.72;5073985;28;20033;-74
2023/09/20 06:16:23;;;;;;;17.85;10.02;;;;;;;22.62;100.00;104855.31;5074488;28;20033;-74
2023/09/20 06:18:49;;;;;;;17.60;9.80;;;;;;;22.70;100.00;104719.41;5073925;28;20033;-74
2023/09/20 06:21:17;;;;;;;16.27;9.73;;;;;;;22.46;100.00;104495.41;5073902;28;20032;-74
2023/09/20 06:23:43;;;;;;;19.95;9.40;;;;;;;23.00;100.00;104326.28;5073891;28;20464;-76
2023/09/20 06:26:13;;;;;;;17.55;9.40;;;;;;;22.62;100.00;103967.63;5074245;28;20028;-75
2023/09/20 06:28:42;;;;;;;20.20;9.90;;;;;;;22.36;100.00;103724.94;5088584;28;20071;-75
2023/09/20 06:31:13;;;;;;;16.55;9.07;;;;;;;22.90;100.00;103737.84;5074217;28;20036;-76
2023/09/20 06:33:46;;;;;;;18.02;8.45;;;;;;;23.05;100.00;103646.69;5074531;28;20028;-76
2023/09/20 06:36:20;;;;;;;12.05;7.38;;;;;;;23.57;100.00;103313.78;5073738;28;20028;-75
2023/09/20 06:38:49;;;;;;;19.20;7.22;;;;;;;23.65;100.00;103169.69;5074087;28;20119;-75
2023/09/20 06:41:15;;;;;;;11.93;6.65;;;;;;;23.64;100.00;103116.03;5073870;28;20094;-76
2023/09/20 06:43:42;;;;;;;8.35;7.13;;;;;;;23.69;100.00;103017.13;5073411;28;20418;-74
2023/09/20 06:46:08;;;;;;;12.35;6.65;;;;;;;24.08;100.00;102969.81;5089623;28;20068;-75
2023/09/20 06:48:33;;;;;;;10.25;6.45;;;;;;;24.20;100.00;102898.28;5073334;28;20032;-75
2023/09/20 06:51:00;;;;;;;8.15;6.45;;;;;;;24.58;100.00;102829.97;5071913;28;20032;-75
2023/09/20 06:53:25;;;;;;;9.65;6.72;;;;;;;23.84;100.00;102726.31;5073444;28;20027;-74
2023/09/20 06:55:51;;;;;;;11.68;7.78;;;;;;;24.68;100.00;102718.53;5073465;28;20025;-73
2023/09/20 06:58:17;;;;;;;9.40;6.80;;;;;;;24.71;100.00;102620.34;5073259;28;20509;-75
2023/09/20 07:00:43;;;;;;;11.05;6.68;;;;;;;24.24;100.00;102504.50;5073182;28;20086;-74
2023/09/20 07:03:09;;;;;;;17.95;6.93;;;;;;;24.85;100.00;102440.94;5073122;28;20028;-75
2023/09/20 07:05:35;;;;;;;14.32;6.80;;;;;;;24.91;100.00;102369.50;5071561;28;20035;-74
2023/09/20 07:08:00;;;;;;;10.93;6.68;;;;;;;25.15;100.00;102307.53;5073273;28;20036;-74
2023/09/20 07:10:29;;;;;;;9.57;6.35;;;;;;;24.59;100.00;102182.81;5071941;28;20029;-75
2023/09/20 07:12:55;;;;;;;9.63;6.50;;;;;;;24.85;100.00;102130.31;5073604;28;20036;-74
2023/09/20 07:15:24;;;;;;;10.80;6.25;;;;;;;25.37;100.00;102118.75;5072732;28;20028;-71
2023/09/20 07:17:58;;;;;;;10.50;6.68;;;;;;;25.21;100.00;101979.03;5072835;28;20040;-74
2023/09/20 07:20:31;;;;;;;14.30;6.53;;;;;;;25.05;100.00;101988.63;5088272;28;20029;-74
2023/09/20 07:22:58;;;;;;;10.40;6.75;;;;;;;24.92;100.00;101937.25;5072737;28;20075;-76
2023/09/20 07:25:27;;;;;;;8.70;6.38;;;;;;;25.68;100.00;101925.88;5073218;28;20105;-75
2023/09/20 07:27:55;;;;;;;12.55;6.47;;;;;;;25.65;100.00;101863.47;5073061;28;20158;-75
2023/09/20 07:30:22;;;;;;;7.40;5.80;;;;;;;25.39;100.00;101859.00;5073073;28;20021;-76
2023/09/20 07:32:50;;;;;;;10.85;6.68;;;;;;;25.96;100.00;101843.34;5072768;28;20033;-75
2023/09/20 07:38:37;;;;;;;10.25;5.85;;;;;;;25.60;100.00;101732.63;5030488;28;20448;-75
2023/09/20 07:41:13;;;;;;;10.05;5.30;;;;;;;26.10;100.00;101758.16;5069219;28;20032;-75
2023/09/20 07:43:47;;;;;;;6.43;5.40;;;;;;;26.71;100.00;101728.88;5074395;28;20033;-74
2023/09/20 07:46:13;;;;;;;5.13;4.40;;;;;;;26.11;100.00;101701.56;5052372;28;20021;-75
2023/09/20 07:48:50;;;;;;;10.00;5.10;;;;;;;25.25;100.00;101624.53;5052255;28;20036;-74
2023/09/20 07:51:20;;;;;;;7.63;5.20;;;;;;;26.33;100.00;101666.16;5051980;28;20040;-74
2023/09/20 07:53:49;;;;;;;9.00;5.30;;;;;;;26.49;100.00;101601.56;5052029;28;20029;-74
2023/09/20 07:56:15;;;;;;;8.63;5.13;;;;;;;26.62;100.00;101597.19;5052261;28;20112;-74
2023/09/20 07:58:41;;;;;;;7.03;4.68;;;;;;;26.89;100.00;101510.06;5052156;28;20112;-74
2023/09/20 08:01:20;;;;;;;11.90;5.30;;;;;;;27.09;100.00;101486.81;5052018;28;20056;-73
2023/09/20 08:03:52;;;;;;;7.63;4.80;;;;;;;26.26;100.00;101444.94;5050725;28;20025;-73
2023/09/20 08:06:19;;;;;;;7.80;5.07;;;;;;;26.56;100.00;101487.97;5050924;28;20025;-72
2023/09/20 08:08:45;;;;;;;7.53;5.55;;;;;;;26.19;100.00;101501.91;5050700;28;20033;-73
2023/09/20 08:11:11;;;;;;;8.90;4.88;;;;;;;26.60;100.00;101473.78;5051837;28;20123;-72
2023/09/20 08:13:36;;;;;;;8.15;5.20;;;;;;;27.35;100.00;101480.53;5050773;28;20060;-72
2023/09/20 08:16:02;;;;;;;12.90;4.63;;;;;;;27.41;100.00;101424.38;5049485;28;20108;-72
2023/09/20 08:21:12;;;;;;;6.35;4.70;;;;;;;26.90;100.00;101352.47;5051352;28;20531;-74
2023/09/20 09:02:12;;;;;;;7.80;3.65;;;;;;;29.70;100.00;100889.13;5050847;28;20036;-72
2023/09/20 09:04:38;;;;;;;6.60;3.70;;;;;;;29.01;100.00;100851.84;5051050;28;20051;-76
2023/09/20 09:07:04;;;;;;;8.90;3.60;;;;;;;29.09;100.00;100877.34;5050939;28;20414;-73
2023/09/20 09:09:30;;;;;;;5.68;3.42;;;;;;;28.35;100.00;100838.66;5049417;28;20479;-75
2023/09/20 09:11:59;;;;;;;7.68;3.72;;;;;;;29.23;100.00;100863.00;4713346;28;10000562;-76
2023/09/20 09:14:26;;;;;;;7.50;3.70;;;;;;;28.83;100.00;100847.44;5068542;28;20061;-74
2023/09/20 09:17:03;;;;;;;5.88;3.40;;;;;;;28.62;100.00;100794.38;5067961;28;20068;-71
2023/09/20 09:19:29;;;;;;;5.45;3.63;;;;;;;29.63;100.00;100853.13;5067778;28;20056;-73
2023/09/20 09:21:57;;;;;;;7.60;3.85;;;;;;;29.48;100.00;100889.44;5067715;28;20279;-75
2023/09/20 09:24:22;;;;;;;6.95;3.35;;;;;;;29.87;100.00;100882.34;5068386;28;20029;-75
2023/09/20 09:26:48;;;;;;;5.85;3.72;;;;;;;29.45;100.00;100862.69;5067784;28;20445;-74
2023/09/20 09:29:18;;;;;;;5.82;3.85;;;;;;;29.16;100.00;100933.47;5071929;28;20032;-75
2023/09/20 09:31:49;;;;;;;7.22;3.65;;;;;;;28.84;100.00;100885.78;5072634;28;20044;-76
2023/09/20 09:34:19;;;;;;;5.32;3.53;;;;;;;29.87;100.00;100882.34;5072268;28;20028;-73
2023/09/20 09:36:47;;;;;;;7.20;3.95;;;;;;;30.67;100.00;100940.22;5070972;28;20131;-73
2023/09/20 09:39:16;;;;;;;5.32;3.85;;;;;;;29.60;100.00;100956.50;5071823;28;20535;-73
2023/09/20 09:41:46;;;;;;;7.57;3.72;;;;;;;30.59;100.00;100904.19;5070289;28;20040;-75
2023/09/20 09:44:12;;;;;;;9.13;3.60;;;;;;;29.37;100.00;100892.25;5071799;28;20036;-75
2023/09/20 09:46:39;;;;;;;5.22;3.40;;;;;;;29.80;100.00;100907.47;5073408;28;20033;-75
2023/09/20 09:49:11;;;;;;;6.38;3.63;;;;;;;29.92;100.00;100909.78;5074888;28;20029;-72
2023/09/20 09:51:50;;;;;;;6.07;3.55;;;;;;;30.19;100.00;100902.91;5074338;28;20036;-72
2023/09/20 09:54:20;;;;;;;6.32;3.47;;;;;;;30.68;100.00;100892.78;5074339;28;20021;-73
2023/09/20 09:56:47;;;;;;;6.22;3.72;;;;;;;30.84;100.00;100896.59;5073247;28;20483;-73
2023/09/20 09:59:13;;;;;;;8.88;3.78;;;;;;;31.10;100.00;100876.47;5073623;28;20092;-74
2023/09/20 10:01:40;;;;;;;7.32;3.63;;;;;;;29.36;100.00;100811.09;5073749;28;20119;-73
2023/09/20 10:04:13;;;;;;;5.65;3.53;;;;;;;30.07;100.00;100835.84;5072389;28;20078;-74
2023/09/20 10:06:44;;;;;;;4.10;3.30;;;;;;;30.43;100.00;100871.69;5073644;28;20056;-72
2023/09/20 10:09:11;;;;;;;6.38;3.90;;;;;;;30.36;100.00;100833.88;5073254;28;20031;-71
2023/09/20 10:11:38;;;;;;;7.50;3.60;;;;;;;30.36;100.00;100805.00;5073475;28;20032;-72
2023/09/20 10:14:07;;;;;;;5.22;3.65;;;;;;;30.09;100.00;100820.78;5073676;28;20033;-71
2023/09/20 10:16:35;;;;;;;8.57;4.15;;;;;;;29.53;100.00;100810.38;5072735;28;20025;-72
2023/09/20 10:19:01;;;;;;;8.82;3.70;;;;;;;30.96;100.00;100842.84;5072675;28;20111;-73
2023/09/20 10:21:30;;;;;;;8.23;3.70;;;;;;;30.85;100.00;100803.66;5089450;28;20024;-73
2023/09/20 10:24:00;;;;;;;8.65;4.15;;;;;;;30.75;100.00;100741.50;5073704;28;20099;-73
2023/09/20 10:26:27;;;;;;;5.80;3.50;;;;;;;31.38;100.00;100836.75;5073882;28;20028;-73
2023/09/20 10:29:16;;;;;;;6.93;3.85;;;;;;;30.51;100.00;100824.50;5073791;28;20036;-74
2023/09/20 10:31:42;;;;;;;10.65;3.67;;;;;;;31.32;100.00;100821.56;5073386;28;20029;-73
2023/09/20 10:34:07;;;;;;;5.72;3.65;;;;;;;30.85;100.00;100772.13;5073394;28;20456;-72
2023/09/20 10:36:34;;;;;;;6.45;3.72;;;;;;;30.31;100.00;100812.47;5089342;28;20058;-73
2023/09/20 10:39:17;;;;;;;5.32;3.65;;;;;;;30.70;100.00;100842.75;5072939;28;20025;-73
2023/09/20 10:41:51;;;;;;;5.18;3.63;;;;;;;31.63;100.00;100812.22;5073693;28;20517;-73
2023/09/20 10:44:26;;;;;;;5.55;3.60;;;;;;;30.78;100.00;100769.25;5073555;28;20082;-73
2023/09/20 10:46:53;;;;;;;5.88;3.83;;;;;;;31.35;100.00;100809.91;5072281;28;20041;-73
2023/09/20 10:49:50;;;;;;;5.20;3.70;;;;;;;31.18;100.00;100819.50;5073340;28;20078;-73
2023/09/20 10:52:31;;;;;;;4.57;3.63;;;;;;;31.36;100.00;100798.41;5073194;28;20060;-73
2023/09/20 10:55:35;;;;;;;6.35;3.63;;;;;;;30.28;100.00;100828.50;5073098;28;20192;-72
2023/09/20 10:58:01;;;;;;;5.88;3.50;;;;;;;30.06;100.00;100810.56;5069105;28;20044;-72
2023/09/20 11:00:30;;;;;;;6.43;3.40;;;;;;;30.67;100.00;100795.75;5073411;28;20891;-72
2023/09/20 11:02:56;;;;;;;5.93;3.20;;;;;;;30.64;100.00;100810.00;5073191;28;20031;-72
2023/09/20 11:05:29;;;;;;;7.75;3.42;;;;;;;30.34;100.00;100757.06;5072900;28;20036;-72
2023/09/20 11:07:55;;;;;;;5.82;3.75;;;;;;;31.01;100.00;100788.84;5072720;28;20495;-72
2023/09/20 11:10:21;;;;;;;8.00;3.35;;;;;;;31.48;100.00;100755.94;5073067;28;20058;-72
2023/09/20 11:12:47;;;;;;;6.53;3.50;;;;;;;31.07;100.00;100784.75;5072836;28;20060;-72
2023/09/20 11:15:16;;;;;;;4.13;3.15;;;;;;;31.42;100.00;100718.91;5072938;28;20470;-73
2023/09/20 11:17:41;;;;;;;5.60;3.45;;;;;;;31.00;100.00;100791.63;5072507;28;20036;-71
2023/09/20 11:20:07;;;;;;;6.47;3.65;;;;;;;31.10;100.00;100771.31;5071908;28;20123;-72
2023/09/20 11:22:33;;;;;;;8.70;3.35;;;;;;;30.63;100.00;100736.63;5088322;28;20427;-70
2023/09/20 11:25:00;;;;;;;5.22;3.67;;;;;;;31.29;100.00;100713.25;5072523;28;20066;-72
2023/09/20 11:27:27;;;;;;;6.75;3.92;;;;;;;30.86;100.00;100758.00;5072726;28;20025;-73
2023/09/20 11:29:54;;;;;;;7.45;3.60;;;;;;;31.67;100.00;100754.03;5071153;28;20024;-73
2023/09/20 11:32:22;;;;;;;8.98;3.60;;;;;;;31.38;100.00;100733.34;5072213;28;20037;-72
2023/09/20 11:34:51;;;;;;;9.15;3.50;;;;;;;31.46;100.00;100728.97;5072456;28;20024;-73
2023/09/20 11:37:20;;;;;;;4.20;3.20;;;;;;;30.73;100.00;100742.63;5072759;28;20422;-73
2023/09/20 11:39:47;;;;;;;5.63;3.38;;;;;;;30.35;100.00;100735.91;5071122;28;20032;-73
2023/09/20 11:42:32;;;;;;;7.22;3.05;;;;;;;31.91;100.00;100741.75;5072186;28;20111;-73
2023/09/20 11:45:05;;;;;;;5.75;3.10;;;;;;;32.54;100.00;100733.31;5072087;28;20068;-73
2023/09/20 11:47:31;;;;;;;4.55;3.30;;;;;;;31.85;100.00;100718.75;5072124;28;20178;-73
2023/09/20 11:49:58;;;;;;;8.25;3.20;;;;;;;31.78;100.00;100699.31;5071912;28;20032;-74
2023/09/20 11:52:24;;;;;;;5.50;3.13;;;;;;;32.06;100.00;100750.72;5071361;28;20577;-74
2023/09/20 11:54:49;;;;;;;6.50;3.20;;;;;;;31.35;100.00;100766.03;5072024;28;20032;-73
2023/09/20 11:57:22;;;;;;;5.47;3.10;;;;;;;31.38;100.00;100741.25;5070697;28;20040;-72